sensor_id;sensor_type;location;lat;lon;timestamp;P1;durP1;ratioP1;P2;durP2;ratioP2
21955;SDS011;11142;49.930;8.606;2023-12-20T00:00:48;10.10;;;5.20;;
21955;SDS011;11142;49.930;8.606;2023-12-20T00:03:16;9.27;;;4.90;;
21955;SDS011;11142;49.930;8.606;2023-12-20T00:05:45;12.52;;;5.35;;
21955;SDS011;11142;49.930;8.606;2023-12-20T00:08:13;9.23;;;5.10;;
21955;SDS011;11142;49.930;8.606;2023-12-20T00:10:42;13.95;;;5.65;;
21955;SDS011;11142;49.930;8.606;2023-12-20T00:13:14;8.88;;;5.18;;
21955;SDS011;11142;49.930;8.606;2023-12-20T00:15:44;10.20;;;5.10;;
21955;SDS011;11142;49.930;8.606;2023-12-20T00:18:12;10.35;;;4.97;;
21955;SDS011;11142;49.930;8.606;2023-12-20T00:20:40;8.52;;;5.18;;
21955;SDS011;11142;49.930;8.606;2023-12-20T00:23:09;10.15;;;5.55;;
21955;SDS011;11142;49.930;8.606;2023-12-20T00:25:37;9.55;;;5.07;;
21955;SDS011;11142;49.930;8.606;2023-12-20T00:28:05;9.02;;;4.47;;
21955;SDS011;11142;49.930;8.606;2023-12-20T00:30:35;9.77;;;5.22;;
21955;SDS011;11142;49.930;8.606;2023-12-20T00:33:07;8.98;;;5.15;;
21955;SDS011;11142;49.930;8.606;2023-12-20T00:35:37;8.18;;;4.82;;
21955;SDS011;11142;49.930;8.606;2023-12-20T00:38:07;8.15;;;4.60;;
21955;SDS011;11142;49.930;8.606;2023-12-20T00:40:36;8.15;;;4.55;;
21955;SDS011;11142;49.930;8.606;2023-12-20T00:43:05;8.13;;;4.40;;
21955;SDS011;11142;49.930;8.606;2023-12-20T00:45:35;6.72;;;4.18;;
21955;SDS011;11142;49.930;8.606;2023-12-20T00:48:04;6.20;;;3.83;;
21955;SDS011;11142;49.930;8.606;2023-12-20T00:50:36;6.18;;;3.95;;
21955;SDS011;11142;49.930;8.606;2023-12-20T00:53:05;8.98;;;4.25;;
21955;SDS011;11142;49.930;8.606;2023-12-20T00:55:37;7.20;;;4.00;;
21955;SDS011;11142;49.930;8.606;2023-12-20T00:58:05;7.35;;;3.75;;
21955;SDS011;11142;49.930;8.606;2023-12-20T01:00:33;6.50;;;3.47;;
21955;SDS011;11142;49.930;8.606;2023-12-20T01:03:02;7.13;;;4.40;;
21955;SDS011;11142;49.930;8.606;2023-12-20T01:05:31;5.10;;;3.33;;
21955;SDS011;11142;49.930;8.606;2023-12-20T01:08:00;8.38;;;3.88;;
21955;SDS011;11142;49.930;8.606;2023-12-20T01:10:35;7.70;;;4.50;;
21955;SDS011;11142;49.930;8.606;2023-12-20T01:13:05;9.90;;;3.90;;
21955;SDS011;11142;49.930;8.606;2023-12-20T01:15:37;8.10;;;3.92;;
21955;SDS011;11142;49.930;8.606;2023-12-20T01:18:06;8.00;;;4.05;;
21955;SDS011;11142;49.930;8.606;2023-12-20T01:20:34;6.45;;;3.75;;
21955;SDS011;11142;49.930;8.606;2023-12-20T01:23:11;5.60;;;3.60;;
21955;SDS011;11142;49.930;8.606;2023-12-20T01:25:40;6.18;;;3.95;;
21955;SDS011;11142;49.930;8.606;2023-12-20T01:28:11;6.25;;;3.75;;
21955;SDS011;11142;49.930;8.606;2023-12-20T01:30:39;8.23;;;4.45;;
21955;SDS011;11142;49.930;8.606;2023-12-20T01:33:07;8.73;;;4.32;;
21955;SDS011;11142;49.930;8.606;2023-12-20T01:35:37;7.35;;;3.90;;
21955;SDS011;11142;49.930;8.606;2023-12-20T01:38:08;6.35;;;3.80;;
21955;SDS011;11142;49.930;8.606;2023-12-20T01:40:41;11.05;;;3.58;;
21955;SDS011;11142;49.930;8.606;2023-12-20T01:43:11;6.38;;;3.90;;
21955;SDS011;11142;49.930;8.606;2023-12-20T01:45:42;6.28;;;3.83;;
21955;SDS011;11142;49.930;8.606;2023-12-20T01:48:12;5.88;;;3.80;;
21955;SDS011;11142;49.930;8.606;2023-12-20T01:50:44;5.95;;;3.65;;
21955;SDS011;11142;49.930;8.606;2023-12-20T01:53:15;6.65;;;4.07;;
21955;SDS011;11142;49.930;8.606;2023-12-20T01:55:45;7.15;;;3.65;;
21955;SDS011;11142;49.930;8.606;2023-12-20T01:58:17;5.70;;;3.47;;
21955;SDS011;11142;49.930;8.606;2023-12-20T02:00:46;5.68;;;3.45;;
21955;SDS011;11142;49.930;8.606;2023-12-20T03:09:42;7.68;;;4.00;;
21955;SDS011;11142;49.930;8.606;2023-12-20T03:18:36;6.97;;;3.65;;
21955;SDS011;11142;49.930;8.606;2023-12-20T03:21:04;5.90;;;2.97;;
21955;SDS011;11142;49.930;8.606;2023-12-20T03:23:33;5.68;;;3.22;;
21955;SDS011;11142;49.930;8.606;2023-12-20T03:26:03;5.13;;;3.03;;
21955;SDS011;11142;49.930;8.606;2023-12-20T03:28:31;7.15;;;3.38;;
21955;SDS011;11142;49.930;8.606;2023-12-20T03:40:08;4.93;;;3.28;;
21955;SDS011;11142;49.930;8.606;2023-12-20T03:42:39;7.75;;;4.15;;
21955;SDS011;11142;49.930;8.606;2023-12-20T03:45:08;4.75;;;2.97;;
21955;SDS011;11142;49.930;8.606;2023-12-20T03:47:37;4.57;;;3.13;;
21955;SDS011;11142;49.930;8.606;2023-12-20T03:50:05;5.60;;;3.45;;
21955;SDS011;11142;49.930;8.606;2023-12-20T03:52:35;9.60;;;3.70;;
21955;SDS011;11142;49.930;8.606;2023-12-20T03:55:03;6.68;;;3.63;;
21955;SDS011;11142;49.930;8.606;2023-12-20T03:57:32;7.63;;;3.53;;
21955;SDS011;11142;49.930;8.606;2023-12-20T04:55:42;5.55;;;3.75;;
21955;SDS011;11142;49.930;8.606;2023-12-20T04:58:11;5.88;;;3.28;;
21955;SDS011;11142;49.930;8.606;2023-12-20T05:00:39;5.53;;;3.35;;
21955;SDS011;11142;49.930;8.606;2023-12-20T05:03:08;6.90;;;3.67;;
21955;SDS011;11142;49.930;8.606;2023-12-20T05:11:29;5.75;;;3.88;;
21955;SDS011;11142;49.930;8.606;2023-12-20T05:13:58;5.75;;;3.83;;
21955;SDS011;11142;49.930;8.606;2023-12-20T05:16:27;6.25;;;3.60;;
21955;SDS011;11142;49.930;8.606;2023-12-20T05:18:55;6.05;;;3.47;;
21955;SDS011;11142;49.930;8.606;2023-12-20T05:21:23;6.28;;;3.47;;
21955;SDS011;11142;49.930;8.606;2023-12-20T05:23:51;6.93;;;3.25;;
21955;SDS011;11142;49.930;8.606;2023-12-20T05:26:19;6.13;;;3.60;;
21955;SDS011;11142;49.930;8.606;2023-12-20T05:28:49;4.18;;;3.10;;
21955;SDS011;11142;49.930;8.606;2023-12-20T05:31:18;4.57;;;2.95;;
21955;SDS011;11142;49.930;8.606;2023-12-20T05:33:46;3.85;;;2.72;;
21955;SDS011;11142;49.930;8.606;2023-12-20T05:51:32;30.55;;;12.45;;
21955;SDS011;11142;49.930;8.606;2023-12-20T05:54:00;7.43;;;4.00;;
21955;SDS011;11142;49.930;8.606;2023-12-20T05:56:28;6.68;;;3.70;;
21955;SDS011;11142;49.930;8.606;2023-12-20T05:58:56;5.30;;;3.42;;
21955;SDS011;11142;49.930;8.606;2023-12-20T06:01:25;6.95;;;3.50;;
21955;SDS011;11142;49.930;8.606;2023-12-20T06:03:53;8.05;;;3.80;;
21955;SDS011;11142;49.930;8.606;2023-12-20T06:06:22;9.75;;;3.35;;
21955;SDS011;11142;49.930;8.606;2023-12-20T06:08:53;4.32;;;2.70;;
21955;SDS011;11142;49.930;8.606;2023-12-20T06:11:21;13.15;;;2.97;;
21955;SDS011;11142;49.930;8.606;2023-12-20T06:13:49;4.05;;;2.53;;
21955;SDS011;11142;49.930;8.606;2023-12-20T06:16:18;4.90;;;3.00;;
21955;SDS011;11142;49.930;8.606;2023-12-20T06:18:47;6.75;;;3.15;;
21955;SDS011;11142;49.930;8.606;2023-12-20T06:21:15;4.75;;;2.95;;
21955;SDS011;11142;49.930;8.606;2023-12-20T06:23:43;5.35;;;2.92;;
21955;SDS011;11142;49.930;8.606;2023-12-20T06:26:12;4.55;;;2.80;;
21955;SDS011;11142;49.930;8.606;2023-12-20T06:28:41;6.15;;;3.10;;
21955;SDS011;11142;49.930;8.606;2023-12-20T06:31:09;8.52;;;3.20;;
21955;SDS011;11142;49.930;8.606;2023-12-20T06:33:38;7.65;;;3.88;;
21955;SDS011;11142;49.930;8.606;2023-12-20T06:36:10;6.72;;;2.90;;
21955;SDS011;11142;49.930;8.606;2023-12-20T06:38:39;5.50;;;2.95;;
21955;SDS011;11142;49.930;8.606;2023-12-20T06:41:08;7.20;;;3.22;;
21955;SDS011;11142;49.930;8.606;2023-12-20T06:43:43;11.65;;;4.15;;
21955;SDS011;11142;49.930;8.606;2023-12-20T06:46:16;9.35;;;3.70;;
21955;SDS011;11142;49.930;8.606;2023-12-20T06:48:44;7.28;;;3.08;;
21955;SDS011;11142;49.930;8.606;2023-12-20T06:51:13;6.13;;;3.65;;
21955;SDS011;11142;49.930;8.606;2023-12-20T06:53:43;9.20;;;4.22;;
21955;SDS011;11142;49.930;8.606;2023-12-20T06:56:11;6.22;;;3.70;;
21955;SDS011;11142;49.930;8.606;2023-12-20T06:58:45;7.65;;;3.50;;
21955;SDS011;11142;49.930;8.606;2023-12-20T07:01:14;6.65;;;3.25;;
21955;SDS011;11142;49.930;8.606;2023-12-20T07:03:44;8.25;;;3.72;;
21955;SDS011;11142;49.930;8.606;2023-12-20T07:06:12;9.15;;;3.67;;
21955;SDS011;11142;49.930;8.606;2023-12-20T07:08:43;9.98;;;3.85;;
21955;SDS011;11142;49.930;8.606;2023-12-20T07:11:11;9.98;;;3.55;;
21955;SDS011;11142;49.930;8.606;2023-12-20T07:13:40;10.65;;;3.88;;
21955;SDS011;11142;49.930;8.606;2023-12-20T07:16:09;8.60;;;4.20;;
21955;SDS011;11142;49.930;8.606;2023-12-20T07:18:37;6.30;;;4.18;;
21955;SDS011;11142;49.930;8.606;2023-12-20T07:21:06;7.28;;;3.75;;
21955;SDS011;11142;49.930;8.606;2023-12-20T07:23:34;6.80;;;4.00;;
21955;SDS011;11142;49.930;8.606;2023-12-20T07:26:03;9.32;;;4.18;;
21955;SDS011;11142;49.930;8.606;2023-12-20T07:28:32;13.63;;;4.13;;
21955;SDS011;11142;49.930;8.606;2023-12-20T07:31:00;13.18;;;4.07;;
21955;SDS011;11142;49.930;8.606;2023-12-20T07:33:31;12.98;;;4.97;;
21955;SDS011;11142;49.930;8.606;2023-12-20T07:36:06;6.57;;;3.60;;
21955;SDS011;11142;49.930;8.606;2023-12-20T07:38:35;17.17;;;4.00;;
21955;SDS011;11142;49.930;8.606;2023-12-20T07:41:03;7.68;;;4.28;;
21955;SDS011;11142;49.930;8.606;2023-12-20T07:43:32;9.10;;;3.80;;
21955;SDS011;11142;49.930;8.606;2023-12-20T07:46:03;6.50;;;3.42;;
21955;SDS011;11142;49.930;8.606;2023-12-20T07:48:40;8.50;;;3.17;;
21955;SDS011;11142;49.930;8.606;2023-12-20T07:51:11;3.15;;;2.00;;
21955;SDS011;11142;49.930;8.606;2023-12-20T07:53:39;6.68;;;2.78;;
21955;SDS011;11142;49.930;8.606;2023-12-20T07:56:14;9.05;;;2.92;;
21955;SDS011;11142;49.930;8.606;2023-12-20T07:58:43;6.40;;;2.78;;
21955;SDS011;11142;49.930;8.606;2023-12-20T08:01:19;4.68;;;2.20;;
21955;SDS011;11142;49.930;8.606;2023-12-20T08:03:50;7.20;;;2.90;;
21955;SDS011;11142;49.930;8.606;2023-12-20T08:06:19;6.25;;;2.35;;
21955;SDS011;11142;49.930;8.606;2023-12-20T08:08:47;5.85;;;2.00;;
21955;SDS011;11142;49.930;8.606;2023-12-20T08:11:27;7.20;;;2.10;;
21955;SDS011;11142;49.930;8.606;2023-12-20T08:13:56;6.55;;;2.40;;
21955;SDS011;11142;49.930;8.606;2023-12-20T08:16:25;6.20;;;2.70;;
21955;SDS011;11142;49.930;8.606;2023-12-20T08:18:55;3.55;;;2.13;;
21955;SDS011;11142;49.930;8.606;2023-12-20T08:21:25;7.28;;;2.05;;
21955;SDS011;11142;49.930;8.606;2023-12-20T08:23:54;4.10;;;1.90;;
21955;SDS011;11142;49.930;8.606;2023-12-20T08:26:22;6.00;;;2.13;;
21955;SDS011;11142;49.930;8.606;2023-12-20T08:28:51;3.85;;;1.90;;
21955;SDS011;11142;49.930;8.606;2023-12-20T08:31:19;7.95;;;2.15;;
21955;SDS011;11142;49.930;8.606;2023-12-20T08:33:49;3.92;;;2.13;;
21955;SDS011;11142;49.930;8.606;2023-12-20T08:36:19;7.65;;;2.08;;
21955;SDS011;11142;49.930;8.606;2023-12-20T08:38:50;5.95;;;1.52;;
21955;SDS011;11142;49.930;8.606;2023-12-20T08:41:18;3.92;;;1.50;;
21955;SDS011;11142;49.930;8.606;2023-12-20T08:43:47;3.67;;;1.80;;
21955;SDS011;11142;49.930;8.606;2023-12-20T08:46:15;6.43;;;1.75;;
21955;SDS011;11142;49.930;8.606;2023-12-20T08:48:43;5.40;;;1.63;;
21955;SDS011;11142;49.930;8.606;2023-12-20T08:51:12;3.22;;;1.35;;
21955;SDS011;11142;49.930;8.606;2023-12-20T08:53:43;10.10;;;1.88;;
21955;SDS011;11142;49.930;8.606;2023-12-20T08:56:13;3.67;;;1.60;;
21955;SDS011;11142;49.930;8.606;2023-12-20T08:58:42;6.40;;;1.85;;
21955;SDS011;11142;49.930;8.606;2023-12-20T09:01:09;6.45;;;2.75;;
21955;SDS011;11142;49.930;8.606;2023-12-20T09:03:38;5.50;;;2.50;;
21955;SDS011;11142;49.930;8.606;2023-12-20T09:06:07;5.75;;;2.33;;
21955;SDS011;11142;49.930;8.606;2023-12-20T09:08:35;5.82;;;2.58;;
21955;SDS011;11142;49.930;8.606;2023-12-20T09:11:06;3.92;;;2.03;;
21955;SDS011;11142;49.930;8.606;2023-12-20T09:13:35;7.72;;;2.20;;
21955;SDS011;11142;49.930;8.606;2023-12-20T09:16:03;6.68;;;1.90;;
21955;SDS011;11142;49.930;8.606;2023-12-20T09:18:33;6.30;;;2.08;;
21955;SDS011;11142;49.930;8.606;2023-12-20T09:21:01;4.05;;;2.10;;
21955;SDS011;11142;49.930;8.606;2023-12-20T09:23:29;9.38;;;2.30;;
21955;SDS011;11142;49.930;8.606;2023-12-20T09:25:58;8.63;;;2.45;;
21955;SDS011;11142;49.930;8.606;2023-12-20T09:28:27;4.50;;;2.17;;
21955;SDS011;11142;49.930;8.606;2023-12-20T09:30:56;6.90;;;1.95;;
21955;SDS011;11142;49.930;8.606;2023-12-20T09:33:24;12.30;;;2.10;;
21955;SDS011;11142;49.930;8.606;2023-12-20T09:35:53;9.30;;;2.42;;
21955;SDS011;11142;49.930;8.606;2023-12-20T09:38:22;4.88;;;1.88;;
21955;SDS011;11142;49.930;8.606;2023-12-20T09:40:51;5.65;;;2.22;;
21955;SDS011;11142;49.930;8.606;2023-12-20T09:43:20;4.63;;;1.77;;
21955;SDS011;11142;49.930;8.606;2023-12-20T09:45:55;8.55;;;2.22;;
21955;SDS011;11142;49.930;8.606;2023-12-20T09:48:29;8.95;;;2.63;;
21955;SDS011;11142;49.930;8.606;2023-12-20T09:50:58;6.95;;;2.42;;
21955;SDS011;11142;49.930;8.606;2023-12-20T09:53:26;4.70;;;2.10;;
21955;SDS011;11142;49.930;8.606;2023-12-20T09:55:57;5.97;;;2.38;;
21955;SDS011;11142;49.930;8.606;2023-12-20T09:58:27;4.28;;;2.22;;
21955;SDS011;11142;49.930;8.606;2023-12-20T10:00:57;6.63;;;2.40;;
21955;SDS011;11142;49.930;8.606;2023-12-20T10:03:26;5.63;;;1.92;;
21955;SDS011;11142;49.930;8.606;2023-12-20T10:05:56;10.30;;;2.60;;
21955;SDS011;11142;49.930;8.606;2023-12-20T10:08:25;10.63;;;2.55;;
21955;SDS011;11142;49.930;8.606;2023-12-20T10:10:54;3.83;;;2.00;;
21955;SDS011;11142;49.930;8.606;2023-12-20T10:13:24;3.70;;;1.95;;
21955;SDS011;11142;49.930;8.606;2023-12-20T10:15:54;5.13;;;1.83;;
21955;SDS011;11142;49.930;8.606;2023-12-20T10:18:24;9.65;;;2.30;;
21955;SDS011;11142;49.930;8.606;2023-12-20T10:21:05;9.95;;;2.25;;
21955;SDS011;11142;49.930;8.606;2023-12-20T10:23:36;5.00;;;2.22;;
21955;SDS011;11142;49.930;8.606;2023-12-20T10:26:10;4.78;;;2.17;;
21955;SDS011;11142;49.930;8.606;2023-12-20T10:28:38;7.40;;;2.20;;
21955;SDS011;11142;49.930;8.606;2023-12-20T10:31:07;8.48;;;2.42;;
21955;SDS011;11142;49.930;8.606;2023-12-20T10:33:37;4.30;;;1.73;;
21955;SDS011;11142;49.930;8.606;2023-12-20T10:36:09;9.90;;;2.13;;
21955;SDS011;11142;49.930;8.606;2023-12-20T10:38:38;5.93;;;2.00;;
21955;SDS011;11142;49.930;8.606;2023-12-20T10:41:13;3.75;;;1.98;;
21955;SDS011;11142;49.930;8.606;2023-12-20T10:43:43;2.67;;;1.70;;
21955;SDS011;11142;49.930;8.606;2023-12-20T10:46:13;6.22;;;2.25;;
21955;SDS011;11142;49.930;8.606;2023-12-20T10:48:43;6.88;;;1.90;;
21955;SDS011;11142;49.930;8.606;2023-12-20T10:51:14;7.70;;;1.70;;
21955;SDS011;11142;49.930;8.606;2023-12-20T10:53:47;6.88;;;2.30;;
21955;SDS011;11142;49.930;8.606;2023-12-20T10:56:17;8.02;;;1.90;;
21955;SDS011;11142;49.930;8.606;2023-12-20T10:58:46;5.65;;;1.88;;
21955;SDS011;11142;49.930;8.606;2023-12-20T11:01:15;8.65;;;1.90;;
21955;SDS011;11142;49.930;8.606;2023-12-20T11:03:47;7.93;;;1.88;;
21955;SDS011;11142;49.930;8.606;2023-12-20T11:06:20;5.33;;;1.67;;
21955;SDS011;11142;49.930;8.606;2023-12-20T11:09:01;5.75;;;1.75;;
21955;SDS011;11142;49.930;8.606;2023-12-20T11:11:42;7.47;;;1.80;;
21955;SDS011;11142;49.930;8.606;2023-12-20T11:14:29;6.00;;;1.73;;
21955;SDS011;11142;49.930;8.606;2023-12-20T11:17:06;6.38;;;2.00;;
21955;SDS011;11142;49.930;8.606;2023-12-20T11:19:44;8.98;;;2.13;;
21955;SDS011;11142;49.930;8.606;2023-12-20T11:22:35;5.05;;;1.75;;
21955;SDS011;11142;49.930;8.606;2023-12-20T11:25:08;7.05;;;2.38;;
21955;SDS011;11142;49.930;8.606;2023-12-20T11:27:40;4.35;;;2.17;;
21955;SDS011;11142;49.930;8.606;2023-12-20T11:30:10;9.75;;;1.83;;
21955;SDS011;11142;49.930;8.606;2023-12-20T11:32:42;9.10;;;2.22;;
21955;SDS011;11142;49.930;8.606;2023-12-20T11:35:18;9.93;;;1.80;;
21955;SDS011;11142;49.930;8.606;2023-12-20T11:37:50;7.57;;;1.73;;
21955;SDS011;11142;49.930;8.606;2023-12-20T11:40:20;4.10;;;1.95;;
21955;SDS011;11142;49.930;8.606;2023-12-20T11:42:52;2.22;;;1.30;;
21955;SDS011;11142;49.930;8.606;2023-12-20T11:45:22;6.07;;;1.83;;
21955;SDS011;11142;49.930;8.606;2023-12-20T11:47:57;10.73;;;2.78;;
21955;SDS011;11142;49.930;8.606;2023-12-20T11:50:27;5.82;;;1.42;;
21955;SDS011;11142;49.930;8.606;2023-12-20T11:52:57;5.03;;;2.00;;
21955;SDS011;11142;49.930;8.606;2023-12-20T11:55:25;5.95;;;1.60;;
21955;SDS011;11142;49.930;8.606;2023-12-20T11:57:53;6.38;;;1.77;;
21955;SDS011;11142;49.930;8.606;2023-12-20T12:00:22;8.55;;;1.88;;
21955;SDS011;11142;49.930;8.606;2023-12-20T12:02:57;5.78;;;1.88;;
21955;SDS011;11142;49.930;8.606;2023-12-20T12:05:27;6.40;;;2.20;;
21955;SDS011;11142;49.930;8.606;2023-12-20T12:07:56;7.43;;;1.95;;
21955;SDS011;11142;49.930;8.606;2023-12-20T12:10:28;3.30;;;1.60;;
21955;SDS011;11142;49.930;8.606;2023-12-20T12:12:57;5.90;;;1.83;;
21955;SDS011;11142;49.930;8.606;2023-12-20T12:15:26;3.10;;;1.63;;
21955;SDS011;11142;49.930;8.606;2023-12-20T12:17:54;6.20;;;1.90;;
21955;SDS011;11142;49.930;8.606;2023-12-20T12:20:23;9.18;;;1.60;;
21955;SDS011;11142;49.930;8.606;2023-12-20T12:22:59;4.40;;;1.40;;
21955;SDS011;11142;49.930;8.606;2023-12-20T12:25:29;6.25;;;1.60;;
21955;SDS011;11142;49.930;8.606;2023-12-20T12:27:59;7.05;;;1.92;;
21955;SDS011;11142;49.930;8.606;2023-12-20T12:30:28;5.20;;;1.98;;
21955;SDS011;11142;49.930;8.606;2023-12-20T12:33:04;7.50;;;1.75;;
21955;SDS011;11142;49.930;8.606;2023-12-20T12:35:33;3.92;;;1.60;;
21955;SDS011;11142;49.930;8.606;2023-12-20T12:38:03;5.90;;;1.88;;
21955;SDS011;11142;49.930;8.606;2023-12-20T12:40:34;11.48;;;1.65;;
21955;SDS011;11142;49.930;8.606;2023-12-20T12:43:03;7.03;;;2.25;;
21955;SDS011;11142;49.930;8.606;2023-12-20T12:45:33;5.30;;;1.63;;
21955;SDS011;11142;49.930;8.606;2023-12-20T12:48:01;3.88;;;1.88;;
21955;SDS011;11142;49.930;8.606;2023-12-20T12:50:30;8.48;;;1.73;;
21955;SDS011;11142;49.930;8.606;2023-12-20T12:52:58;7.97;;;2.00;;
21955;SDS011;11142;49.930;8.606;2023-12-20T12:55:28;7.15;;;1.70;;
21955;SDS011;11142;49.930;8.606;2023-12-20T12:57:56;9.23;;;1.90;;
21955;SDS011;11142;49.930;8.606;2023-12-20T13:00:24;4.72;;;1.95;;
21955;SDS011;11142;49.930;8.606;2023-12-20T13:02:53;6.18;;;2.15;;
21955;SDS011;11142;49.930;8.606;2023-12-20T13:05:21;8.20;;;2.08;;
21955;SDS011;11142;49.930;8.606;2023-12-20T13:07:52;3.60;;;1.85;;
21955;SDS011;11142;49.930;8.606;2023-12-20T13:10:23;6.50;;;2.08;;
21955;SDS011;11142;49.930;8.606;2023-12-20T13:12:53;10.15;;;2.05;;
21955;SDS011;11142;49.930;8.606;2023-12-20T13:15:22;5.82;;;2.50;;
21955;SDS011;11142;49.930;8.606;2023-12-20T13:17:51;10.15;;;2.70;;
21955;SDS011;11142;49.930;8.606;2023-12-20T13:20:20;10.45;;;3.20;;
21955;SDS011;11142;49.930;8.606;2023-12-20T13:22:48;8.48;;;2.90;;
21955;SDS011;11142;49.930;8.606;2023-12-20T13:25:17;9.98;;;2.63;;
21955;SDS011;11142;49.930;8.606;2023-12-20T13:27:46;9.20;;;2.20;;
21955;SDS011;11142;49.930;8.606;2023-12-20T13:30:17;6.72;;;2.42;;
21955;SDS011;11142;49.930;8.606;2023-12-20T13:32:45;5.93;;;2.78;;
21955;SDS011;11142;49.930;8.606;2023-12-20T13:35:13;10.63;;;2.17;;
21955;SDS011;11142;49.930;8.606;2023-12-20T13:37:42;7.18;;;2.25;;
21955;SDS011;11142;49.930;8.606;2023-12-20T13:40:15;6.47;;;2.28;;
21955;SDS011;11142;49.930;8.606;2023-12-20T13:42:43;9.52;;;2.50;;
21955;SDS011;11142;49.930;8.606;2023-12-20T13:45:12;5.97;;;2.10;;
21955;SDS011;11142;49.930;8.606;2023-12-20T13:47:42;6.32;;;2.28;;
21955;SDS011;11142;49.930;8.606;2023-12-20T13:50:11;6.93;;;1.77;;
21955;SDS011;11142;49.930;8.606;2023-12-20T13:52:39;9.02;;;1.95;;
21955;SDS011;11142;49.930;8.606;2023-12-20T13:55:08;6.70;;;2.47;;
21955;SDS011;11142;49.930;8.606;2023-12-20T13:57:37;5.25;;;1.80;;
21955;SDS011;11142;49.930;8.606;2023-12-20T14:00:09;6.93;;;1.55;;
21955;SDS011;11142;49.930;8.606;2023-12-20T14:02:43;4.20;;;2.17;;
21955;SDS011;11142;49.930;8.606;2023-12-20T14:05:13;6.05;;;1.70;;
21955;SDS011;11142;49.930;8.606;2023-12-20T14:07:45;6.07;;;1.90;;
21955;SDS011;11142;49.930;8.606;2023-12-20T14:10:15;9.75;;;2.00;;
21955;SDS011;11142;49.930;8.606;2023-12-20T14:12:46;4.50;;;2.00;;
21955;SDS011;11142;49.930;8.606;2023-12-20T14:15:17;4.53;;;1.77;;
21955;SDS011;11142;49.930;8.606;2023-12-20T14:17:47;5.18;;;1.92;;
21955;SDS011;11142;49.930;8.606;2023-12-20T14:20:16;7.95;;;2.38;;
21955;SDS011;11142;49.930;8.606;2023-12-20T14:22:44;10.50;;;2.28;;
21955;SDS011;11142;49.930;8.606;2023-12-20T14:25:13;3.83;;;1.73;;
21955;SDS011;11142;49.930;8.606;2023-12-20T14:27:42;5.53;;;1.88;;
21955;SDS011;11142;49.930;8.606;2023-12-20T14:30:12;5.50;;;2.25;;
21955;SDS011;11142;49.930;8.606;2023-12-20T14:32:43;8.52;;;1.70;;
21955;SDS011;11142;49.930;8.606;2023-12-20T14:35:13;7.43;;;1.52;;
21955;SDS011;11142;49.930;8.606;2023-12-20T14:37:42;7.75;;;1.60;;
21955;SDS011;11142;49.930;8.606;2023-12-20T14:40:12;5.22;;;1.73;;
21955;SDS011;11142;49.930;8.606;2023-12-20T14:42:43;3.15;;;1.20;;
21955;SDS011;11142;49.930;8.606;2023-12-20T14:45:12;7.35;;;1.48;;
21955;SDS011;11142;49.930;8.606;2023-12-20T14:47:41;5.78;;;1.58;;
21955;SDS011;11142;49.930;8.606;2023-12-20T14:50:10;7.10;;;2.78;;
21955;SDS011;11142;49.930;8.606;2023-12-20T14:52:46;10.55;;;1.73;;
21955;SDS011;11142;49.930;8.606;2023-12-20T14:55:14;6.43;;;2.50;;
21955;SDS011;11142;49.930;8.606;2023-12-20T14:57:44;6.13;;;1.55;;
21955;SDS011;11142;49.930;8.606;2023-12-20T15:00:12;5.93;;;1.80;;
21955;SDS011;11142;49.930;8.606;2023-12-20T15:02:43;7.65;;;1.90;;
21955;SDS011;11142;49.930;8.606;2023-12-20T15:05:13;2.60;;;1.48;;
21955;SDS011;11142;49.930;8.606;2023-12-20T15:07:42;4.22;;;1.67;;
21955;SDS011;11142;49.930;8.606;2023-12-20T15:10:12;4.57;;;1.60;;
21955;SDS011;11142;49.930;8.606;2023-12-20T15:12:40;5.63;;;1.80;;
21955;SDS011;11142;49.930;8.606;2023-12-20T15:15:09;4.13;;;1.45;;
21955;SDS011;11142;49.930;8.606;2023-12-20T15:17:37;3.97;;;1.40;;
21955;SDS011;11142;49.930;8.606;2023-12-20T15:20:05;5.80;;;1.83;;
21955;SDS011;11142;49.930;8.606;2023-12-20T15:22:34;5.95;;;1.40;;
21955;SDS011;11142;49.930;8.606;2023-12-20T15:25:02;5.00;;;1.67;;
21955;SDS011;11142;49.930;8.606;2023-12-20T15:27:34;9.10;;;1.80;;
21955;SDS011;11142;49.930;8.606;2023-12-20T15:30:05;4.72;;;1.83;;
21955;SDS011;11142;49.930;8.606;2023-12-20T15:32:36;7.07;;;1.30;;
21955;SDS011;11142;49.930;8.606;2023-12-20T15:35:05;3.65;;;1.52;;
21955;SDS011;11142;49.930;8.606;2023-12-20T15:37:34;6.65;;;2.40;;
21955;SDS011;11142;49.930;8.606;2023-12-20T15:40:02;7.50;;;2.70;;
21955;SDS011;11142;49.930;8.606;2023-12-20T15:42:33;9.10;;;2.50;;
21955;SDS011;11142;49.930;8.606;2023-12-20T15:45:03;5.25;;;2.00;;
21955;SDS011;11142;49.930;8.606;2023-12-20T15:47:32;8.82;;;1.55;;
21955;SDS011;11142;49.930;8.606;2023-12-20T15:50:02;4.22;;;1.70;;
21955;SDS011;11142;49.930;8.606;2023-12-20T15:52:33;3.30;;;1.70;;
21955;SDS011;11142;49.930;8.606;2023-12-20T15:55:04;5.85;;;1.70;;
21955;SDS011;11142;49.930;8.606;2023-12-20T15:57:34;2.95;;;1.20;;
21955;SDS011;11142;49.930;8.606;2023-12-20T16:00:19;5.60;;;2.00;;
21955;SDS011;11142;49.930;8.606;2023-12-20T16:02:47;12.90;;;2.10;;
21955;SDS011;11142;49.930;8.606;2023-12-20T16:05:16;4.10;;;1.65;;
21955;SDS011;11142;49.930;8.606;2023-12-20T16:07:48;4.57;;;1.30;;
21955;SDS011;11142;49.930;8.606;2023-12-20T16:10:16;8.88;;;1.65;;
21955;SDS011;11142;49.930;8.606;2023-12-20T16:12:46;7.75;;;1.77;;
21955;SDS011;11142;49.930;8.606;2023-12-20T16:15:14;6.85;;;1.27;;
21955;SDS011;11142;49.930;8.606;2023-12-20T16:17:44;6.38;;;1.60;;
21955;SDS011;11142;49.930;8.606;2023-12-20T16:20:13;4.38;;;1.30;;
21955;SDS011;11142;49.930;8.606;2023-12-20T16:22:41;6.82;;;2.08;;
21955;SDS011;11142;49.930;8.606;2023-12-20T16:25:09;7.13;;;2.10;;
21955;SDS011;11142;49.930;8.606;2023-12-20T16:27:37;4.72;;;2.10;;
21955;SDS011;11142;49.930;8.606;2023-12-20T16:30:07;8.40;;;2.03;;
21955;SDS011;11142;49.930;8.606;2023-12-20T16:32:35;11.18;;;2.47;;
21955;SDS011;11142;49.930;8.606;2023-12-20T16:35:04;4.05;;;1.90;;
21955;SDS011;11142;49.930;8.606;2023-12-20T16:37:33;4.78;;;1.67;;
21955;SDS011;11142;49.930;8.606;2023-12-20T16:40:04;8.05;;;2.28;;
21955;SDS011;11142;49.930;8.606;2023-12-20T16:42:36;7.15;;;2.38;;
21955;SDS011;11142;49.930;8.606;2023-12-20T16:45:05;8.05;;;3.22;;
21955;SDS011;11142;49.930;8.606;2023-12-20T16:47:35;5.35;;;2.55;;
21955;SDS011;11142;49.930;8.606;2023-12-20T16:50:04;11.15;;;2.40;;
21955;SDS011;11142;49.930;8.606;2023-12-20T16:52:33;6.05;;;2.88;;
21955;SDS011;11142;49.930;8.606;2023-12-20T16:55:03;12.27;;;2.95;;
21955;SDS011;11142;49.930;8.606;2023-12-20T16:57:32;9.02;;;2.75;;
21955;SDS011;11142;49.930;8.606;2023-12-20T17:00:01;12.18;;;3.20;;
21955;SDS011;11142;49.930;8.606;2023-12-20T17:02:30;11.68;;;2.97;;
21955;SDS011;11142;49.930;8.606;2023-12-20T17:04:59;8.10;;;3.05;;
21955;SDS011;11142;49.930;8.606;2023-12-20T17:07:26;6.32;;;3.15;;
21955;SDS011;11142;49.930;8.606;2023-12-20T17:09:55;13.35;;;3.20;;
21955;SDS011;11142;49.930;8.606;2023-12-20T17:12:24;11.43;;;3.33;;
21955;SDS011;11142;49.930;8.606;2023-12-20T17:14:52;9.80;;;3.28;;
21955;SDS011;11142;49.930;8.606;2023-12-20T17:17:20;10.20;;;3.15;;
21955;SDS011;11142;49.930;8.606;2023-12-20T17:19:49;14.52;;;3.42;;
21955;SDS011;11142;49.930;8.606;2023-12-20T17:22:17;6.10;;;2.70;;
21955;SDS011;11142;49.930;8.606;2023-12-20T17:24:46;6.97;;;2.67;;
21955;SDS011;11142;49.930;8.606;2023-12-20T17:27:16;8.38;;;2.70;;
21955;SDS011;11142;49.930;8.606;2023-12-20T17:29:44;12.95;;;2.85;;
21955;SDS011;11142;49.930;8.606;2023-12-20T17:32:12;6.90;;;2.50;;
21955;SDS011;11142;49.930;8.606;2023-12-20T17:34:40;8.77;;;3.28;;
21955;SDS011;11142;49.930;8.606;2023-12-20T17:37:09;10.13;;;3.13;;
21955;SDS011;11142;49.930;8.606;2023-12-20T17:39:40;14.50;;;3.95;;